HPL weather

Torre Polanco Heliport
Miguel Hidalgo, Distrito Federal, Mexico

Public forecast

Using degrees Celsius for public forecast. Weather courtesy of forecast.io.

METAR (pilot weather report)

Closest report is Licenciado Benito Juarez International Airport, 6.2 nm (11.5 km) E. Retrieved 2019/06/19 09:46 UTC (19 minutes ago):

MMMX 190946Z 00000KT 7SM SCT025 BKN100 16/14 A3032 NOSIG RMK 8/530 HZY

TAF (pilot weather forecast)

Closest forecast is Licenciado Benito Juarez International Airport, 6.2 nm (11.5 km) E. Retrieved 2019/06/19 06:00 UTC (4 hours ago):

TAF MMMX 190454Z 1906/2012 21005KT 5SM -RA BKN020CB OVC080 TX27/1921Z TN15/1912Z TEMPO 1906/1908 4SM TSRA FM190900 34005KT P6SM SCT020 BKN090 BKN250 FM191800 02015KT P6SM BKN025CB BKN250 TEMPO 1921/1923 4SM TSRA FM192300 34010KT 4SM -RA BKN020CB OVC080 TEMPO 2000/2004 32010G20KT 3SM TSRA OVC020CB FM200700 34005KT P6SM SCT020 BKN090 BKN250